sensor_id;sensor_type;location;lat;lon;timestamp;pressure;altitude;pressure_sealevel;temperature;humidity
72677;BME280;60755;51.374;10.662;2023-02-24T00:00:24;96780.81;;;4.87;100.00
72677;BME280;60755;51.374;10.662;2023-02-24T00:03:01;96770.41;;;4.87;100.00
72677;BME280;60755;51.374;10.662;2023-02-24T00:05:35;96773.63;;;4.89;100.00
72677;BME280;60755;51.374;10.662;2023-02-24T00:08:03;96770.81;;;4.91;100.00
72677;BME280;60755;51.374;10.662;2023-02-24T00:10:30;96765.16;;;4.94;100.00
72677;BME280;60755;51.374;10.662;2023-02-24T00:12:57;96761.50;;;5.01;100.00
72677;BME280;60755;51.374;10.662;2023-02-24T00:15:25;96751.94;;;4.95;100.00
72677;BME280;60755;51.374;10.662;2023-02-24T00:17:52;96750.31;;;5.01;100.00
72677;BME280;60755;51.374;10.662;2023-02-24T00:20:20;96747.59;;;4.89;100.00
72677;BME280;60755;51.374;10.662;2023-02-24T00:22:47;96751.59;;;4.85;100.00
72677;BME280;60755;51.374;10.662;2023-02-24T00:25:14;96744.38;;;4.87;100.00
72677;BME280;60755;51.374;10.662;2023-02-24T00:27:41;96756.03;;;4.85;100.00
72677;BME280;60755;51.374;10.662;2023-02-24T00:30:09;96742.78;;;4.86;100.00
72677;BME280;60755;51.374;10.662;2023-02-24T00:32:36;96745.56;;;4.91;100.00
72677;BME280;60755;51.374;10.662;2023-02-24T00:35:05;96742.78;;;4.86;100.00
72677;BME280;60755;51.374;10.662;2023-02-24T00:37:35;96729.94;;;4.91;100.00
72677;BME280;60755;51.374;10.662;2023-02-24T00:40:02;96730.34;;;4.88;100.00
72677;BME280;60755;51.374;10.662;2023-02-24T00:42:36;96723.56;;;4.87;100.00
72677;BME280;60755;51.374;10.662;2023-02-24T00:45:05;96723.56;;;4.87;100.00
72677;BME280;60755;51.374;10.662;2023-02-24T00:47:36;96728.41;;;4.84;100.00
72677;BME280;60755;51.374;10.662;2023-02-24T00:50:05;96722.19;;;4.85;100.00
72677;BME280;60755;51.374;10.662;2023-02-24T00:52:33;96720.81;;;4.82;100.00
72677;BME280;60755;51.374;10.662;2023-02-24T00:55:03;96727.81;;;4.82;100.00
72677;BME280;60755;51.374;10.662;2023-02-24T00:57:39;96729.22;;;4.77;100.00
72677;BME280;60755;51.374;10.662;2023-02-24T01:00:07;96724.91;;;4.65;100.00
72677;BME280;60755;51.374;10.662;2023-02-24T01:02:39;96732.09;;;4.25;100.00
72677;BME280;60755;51.374;10.662;2023-02-24T01:05:08;96722.81;;;4.04;100.00
72677;BME280;60755;51.374;10.662;2023-02-24T01:07:36;96722.25;;;3.88;100.00
72677;BME280;60755;51.374;10.662;2023-02-24T01:10:05;96716.50;;;3.80;100.00
72677;BME280;60755;51.374;10.662;2023-02-24T01:12:33;96714.13;;;3.65;100.00
72677;BME280;60755;51.374;10.662;2023-02-24T01:15:15;96715.72;;;3.66;100.00
72677;BME280;60755;51.374;10.662;2023-02-24T01:17:42;96709.16;;;3.44;100.00
72677;BME280;60755;51.374;10.662;2023-02-24T01:20:11;96707.56;;;3.36;100.00
72677;BME280;60755;51.374;10.662;2023-02-24T01:22:42;96706.59;;;3.30;100.00
72677;BME280;60755;51.374;10.662;2023-02-24T01:25:11;96696.59;;;3.27;100.00
72677;BME280;60755;51.374;10.662;2023-02-24T01:27:38;96692.25;;;3.21;100.00
72677;BME280;60755;51.374;10.662;2023-02-24T01:30:08;96689.66;;;3.21;100.00
72677;BME280;60755;51.374;10.662;2023-02-24T01:32:41;96687.84;;;3.15;100.00
72677;BME280;60755;51.374;10.662;2023-02-24T01:35:08;96686.25;;;3.14;100.00
72677;BME280;60755;51.374;10.662;2023-02-24T01:37:37;96687.25;;;3.13;100.00
72677;BME280;60755;51.374;10.662;2023-02-24T01:40:08;96686.63;;;3.11;100.00
72677;BME280;60755;51.374;10.662;2023-02-24T01:42:44;96675.88;;;3.07;100.00
72677;BME280;60755;51.374;10.662;2023-02-24T01:45:26;96669.88;;;3.07;100.00
72677;BME280;60755;51.374;10.662;2023-02-24T01:47:58;96681.84;;;3.08;100.00
72677;BME280;60755;51.374;10.662;2023-02-24T01:50:27;96673.88;;;3.16;100.00
72677;BME280;60755;51.374;10.662;2023-02-24T01:52:56;96670.47;;;3.09;100.00
72677;BME280;60755;51.374;10.662;2023-02-24T01:55:27;96671.84;;;3.12;100.00
72677;BME280;60755;51.374;10.662;2023-02-24T01:57:59;96667.47;;;3.12;100.00
72677;BME280;60755;51.374;10.662;2023-02-24T02:00:27;96667.09;;;3.15;100.00
72677;BME280;60755;51.374;10.662;2023-02-24T02:03:19;96663.88;;;3.20;100.00
72677;BME280;60755;51.374;10.662;2023-02-24T02:05:50;96653.69;;;3.12;100.00
72677;BME280;60755;51.374;10.662;2023-02-24T02:08:20;96661.88;;;3.15;100.00
72677;BME280;60755;51.374;10.662;2023-02-24T02:10:48;96654.50;;;3.12;100.00
72677;BME280;60755;51.374;10.662;2023-02-24T02:13:26;96643.31;;;3.12;100.00
72677;BME280;60755;51.374;10.662;2023-02-24T02:16:02;96642.50;;;3.11;100.00
72677;BME280;60755;51.374;10.662;2023-02-24T02:18:39;96638.91;;;3.12;100.00
72677;BME280;60755;51.374;10.662;2023-02-24T02:21:39;96636.72;;;3.09;100.00
72677;BME280;60755;51.374;10.662;2023-02-24T02:24:29;96633.34;;;3.08;100.00
72677;BME280;60755;51.374;10.662;2023-02-24T02:30:30;96633.91;;;3.17;100.00
72677;BME280;60755;51.374;10.662;2023-02-24T02:33:39;96627.94;;;3.03;100.00
72677;BME280;60755;51.374;10.662;2023-02-24T02:36:12;96624.19;;;2.99;100.00
72677;BME280;60755;51.374;10.662;2023-02-24T02:38:51;96631.16;;;2.99;100.00
72677;BME280;60755;51.374;10.662;2023-02-24T02:41:23;96626.34;;;3.02;100.00
72677;BME280;60755;51.374;10.662;2023-02-24T02:43:59;96624.56;;;3.03;100.00
72677;BME280;60755;51.374;10.662;2023-02-24T02:46:33;96614.34;;;3.21;100.00
72677;BME280;60755;51.374;10.662;2023-02-24T02:49:11;96611.94;;;3.20;100.00
72677;BME280;60755;51.374;10.662;2023-02-24T02:51:41;96611.56;;;3.09;100.00
72677;BME280;60755;51.374;10.662;2023-02-24T02:54:16;96615.16;;;3.15;100.00
72677;BME280;60755;51.374;10.662;2023-02-24T02:56:47;96608.75;;;3.18;100.00
72677;BME280;60755;51.374;10.662;2023-02-24T02:59:20;96608.78;;;3.11;100.00
72677;BME280;60755;51.374;10.662;2023-02-24T03:01:51;96607.97;;;3.11;100.00
72677;BME280;60755;51.374;10.662;2023-02-24T03:04:22;96599.03;;;3.00;100.00
72677;BME280;60755;51.374;10.662;2023-02-24T03:06:55;96601.63;;;3.00;100.00
72677;BME280;60755;51.374;10.662;2023-02-24T03:09:27;96601.03;;;2.85;100.00
72677;BME280;60755;51.374;10.662;2023-02-24T03:11:57;96577.09;;;2.89;100.00
72677;BME280;60755;51.374;10.662;2023-02-24T03:14:31;96578.84;;;2.95;100.00
72677;BME280;60755;51.374;10.662;2023-02-24T03:17:00;96582.50;;;2.81;100.00
72677;BME280;60755;51.374;10.662;2023-02-24T03:19:33;96576.47;;;2.87;100.00
72677;BME280;60755;51.374;10.662;2023-02-24T03:22:07;96582.66;;;2.79;100.00
72677;BME280;60755;51.374;10.662;2023-02-24T03:24:37;96582.88;;;2.71;100.00
72677;BME280;60755;51.374;10.662;2023-02-24T03:27:11;96579.28;;;2.72;100.00
72677;BME280;60755;51.374;10.662;2023-02-24T03:29:43;96583.66;;;2.78;100.00
72677;BME280;60755;51.374;10.662;2023-02-24T03:32:17;96578.47;;;2.78;100.00
72677;BME280;60755;51.374;10.662;2023-02-24T03:34:52;96573.13;;;2.73;100.00
72677;BME280;60755;51.374;10.662;2023-02-24T03:37:22;96568.09;;;2.72;100.00
72677;BME280;60755;51.374;10.662;2023-02-24T03:39:52;96570.53;;;2.73;100.00
72677;BME280;60755;51.374;10.662;2023-02-24T03:42:22;96570.53;;;2.73;100.00
72677;BME280;60755;51.374;10.662;2023-02-24T03:44:51;96565.72;;;2.70;100.00
72677;BME280;60755;51.374;10.662;2023-02-24T03:47:18;96561.75;;;2.74;100.00
72677;BME280;60755;51.374;10.662;2023-02-24T03:49:46;96572.06;;;2.94;100.00
72677;BME280;60755;51.374;10.662;2023-02-24T03:52:27;96557.31;;;2.88;100.00
72677;BME280;60755;51.374;10.662;2023-02-24T03:55:15;96566.31;;;2.86;100.00
72677;BME280;60755;51.374;10.662;2023-02-24T03:57:51;96567.94;;;2.73;100.00
72677;BME280;60755;51.374;10.662;2023-02-24T04:00:35;96562.91;;;2.92;100.00
72677;BME280;60755;51.374;10.662;2023-02-24T04:03:13;96559.53;;;2.78;100.00
72677;BME280;60755;51.374;10.662;2023-02-24T04:05:48;96559.34;;;2.66;100.00
72677;BME280;60755;51.374;10.662;2023-02-24T04:08:23;96559.16;;;2.68;100.00
72677;BME280;60755;51.374;10.662;2023-02-24T04:11:01;96555.19;;;2.65;100.00
72677;BME280;60755;51.374;10.662;2023-02-24T04:13:34;96546.97;;;2.62;100.00
72677;BME280;60755;51.374;10.662;2023-02-24T04:16:15;96546.19;;;2.61;100.00
72677;BME280;60755;51.374;10.662;2023-02-24T04:18:53;96544.38;;;2.68;100.00
72677;BME280;60755;51.374;10.662;2023-02-24T04:21:26;96542.22;;;2.59;100.00
72677;BME280;60755;51.374;10.662;2023-02-24T04:23:58;96539.78;;;2.70;100.00
72677;BME280;60755;51.374;10.662;2023-02-24T04:26:28;96541.56;;;2.76;100.00
72677;BME280;60755;51.374;10.662;2023-02-24T04:28:56;96547.94;;;2.94;100.00
72677;BME280;60755;51.374;10.662;2023-02-24T04:31:24;96528.97;;;2.87;100.00
72677;BME280;60755;51.374;10.662;2023-02-24T04:33:53;96532.00;;;2.84;100.00
72677;BME280;60755;51.374;10.662;2023-02-24T04:36:28;96525.44;;;2.74;100.00
72677;BME280;60755;51.374;10.662;2023-02-24T04:39:00;96525.41;;;2.81;100.00
72677;BME280;60755;51.374;10.662;2023-02-24T04:41:29;96522.78;;;2.88;100.00
72677;BME280;60755;51.374;10.662;2023-02-24T04:43:56;96517.78;;;2.93;100.00
72677;BME280;60755;51.374;10.662;2023-02-24T04:46:23;96521.19;;;2.87;100.00
72677;BME280;60755;51.374;10.662;2023-02-24T04:48:50;96519.63;;;2.79;100.00
72677;BME280;60755;51.374;10.662;2023-02-24T04:51:17;96503.44;;;2.84;100.00
72677;BME280;60755;51.374;10.662;2023-02-24T04:53:45;96513.03;;;2.76;100.00
72677;BME280;60755;51.374;10.662;2023-02-24T04:56:15;96508.50;;;2.52;100.00
72677;BME280;60755;51.374;10.662;2023-02-24T04:58:43;96502.31;;;2.53;100.00
72677;BME280;60755;51.374;10.662;2023-02-24T05:01:10;96505.13;;;2.51;100.00
72677;BME280;60755;51.374;10.662;2023-02-24T05:03:38;96499.72;;;2.53;100.00
72677;BME280;60755;51.374;10.662;2023-02-24T05:06:12;96505.53;;;2.42;100.00
72677;BME280;60755;51.374;10.662;2023-02-24T05:08:40;96494.75;;;2.32;100.00
72677;BME280;60755;51.374;10.662;2023-02-24T05:11:11;96499.94;;;2.32;100.00
72677;BME280;60755;51.374;10.662;2023-02-24T05:13:42;96498.75;;;2.28;100.00
72677;BME280;60755;51.374;10.662;2023-02-24T05:16:12;96491.56;;;2.30;100.00
72677;BME280;60755;51.374;10.662;2023-02-24T05:18:40;96490.19;;;2.27;100.00
72677;BME280;60755;51.374;10.662;2023-02-24T05:21:09;96487.59;;;2.34;100.00
72677;BME280;60755;51.374;10.662;2023-02-24T05:23:55;96481.41;;;2.28;100.00
72677;BME280;60755;51.374;10.662;2023-02-24T05:26:24;96483.19;;;2.28;100.00
72677;BME280;60755;51.374;10.662;2023-02-24T05:28:54;96482.78;;;2.31;100.00
72677;BME280;60755;51.374;10.662;2023-02-24T05:31:25;96472.84;;;2.28;100.00
72677;BME280;60755;51.374;10.662;2023-02-24T05:33:54;96472.84;;;2.28;100.00
72677;BME280;60755;51.374;10.662;2023-02-24T05:36:23;96464.84;;;2.29;100.00
72677;BME280;60755;51.374;10.662;2023-02-24T05:38:51;96463.47;;;2.27;100.00
72677;BME280;60755;51.374;10.662;2023-02-24T05:41:23;96452.91;;;2.28;100.00
72677;BME280;60755;51.374;10.662;2023-02-24T05:43:58;96458.88;;;2.29;100.00
72677;BME280;60755;51.374;10.662;2023-02-24T05:46:31;96451.69;;;2.31;100.00
72677;BME280;60755;51.374;10.662;2023-02-24T05:49:02;96451.31;;;2.20;100.00
72677;BME280;60755;51.374;10.662;2023-02-24T05:51:34;96451.72;;;2.17;100.00
72677;BME280;60755;51.374;10.662;2023-02-24T05:54:02;96445.13;;;2.15;100.00
72677;BME280;60755;51.374;10.662;2023-02-24T05:56:30;96450.50;;;2.13;100.00
72677;BME280;60755;51.374;10.662;2023-02-24T05:59:00;96449.13;;;2.17;100.00
72677;BME280;60755;51.374;10.662;2023-02-24T06:01:28;96449.72;;;2.13;100.00
72677;BME280;60755;51.374;10.662;2023-02-24T06:03:57;96444.91;;;2.23;100.00
72677;BME280;60755;51.374;10.662;2023-02-24T06:06:32;96446.91;;;2.21;100.00
72677;BME280;60755;51.374;10.662;2023-02-24T06:09:01;96446.72;;;2.16;100.00
72677;BME280;60755;51.374;10.662;2023-02-24T06:11:33;96448.91;;;2.12;100.00
72677;BME280;60755;51.374;10.662;2023-02-24T06:14:01;96445.13;;;2.08;100.00
72677;BME280;60755;51.374;10.662;2023-02-24T06:16:32;96444.94;;;2.10;100.00
72677;BME280;60755;51.374;10.662;2023-02-24T06:18:59;96434.75;;;2.08;100.00
72677;BME280;60755;51.374;10.662;2023-02-24T06:21:26;96433.75;;;2.16;100.00
72677;BME280;60755;51.374;10.662;2023-02-24T06:23:55;96433.38;;;2.26;100.00
72677;BME280;60755;51.374;10.662;2023-02-24T06:26:22;96438.94;;;2.22;100.00
72677;BME280;60755;51.374;10.662;2023-02-24T06:28:51;96435.34;;;2.23;100.00
72677;BME280;60755;51.374;10.662;2023-02-24T06:31:20;96436.34;;;2.22;100.00
72677;BME280;60755;51.374;10.662;2023-02-24T06:33:47;96429.16;;;2.24;100.00
72677;BME280;60755;51.374;10.662;2023-02-24T06:36:13;96429.38;;;2.23;100.00
72677;BME280;60755;51.374;10.662;2023-02-24T06:38:41;96426.97;;;2.35;100.00
72677;BME280;60755;51.374;10.662;2023-02-24T06:41:08;96424.97;;;2.37;100.00
72677;BME280;60755;51.374;10.662;2023-02-24T06:43:36;96416.97;;;2.38;100.00
72677;BME280;60755;51.374;10.662;2023-02-24T06:46:04;96416.97;;;2.45;100.00
72677;BME280;60755;51.374;10.662;2023-02-24T06:48:33;96420.69;;;2.69;100.00
72677;BME280;60755;51.374;10.662;2023-02-24T06:51:04;96413.31;;;2.66;100.00
72677;BME280;60755;51.374;10.662;2023-02-24T06:53:32;96403.69;;;2.79;100.00
72677;BME280;60755;51.374;10.662;2023-02-24T06:56:04;96405.34;;;2.61;100.00
72677;BME280;60755;51.374;10.662;2023-02-24T06:58:40;96410.31;;;2.62;100.00
72677;BME280;60755;51.374;10.662;2023-02-24T07:01:10;96413.94;;;2.55;100.00
72677;BME280;60755;51.374;10.662;2023-02-24T07:03:39;96406.38;;;2.53;100.00
72677;BME280;60755;51.374;10.662;2023-02-24T07:06:26;96413.50;;;2.64;100.00
72677;BME280;60755;51.374;10.662;2023-02-24T07:08:56;96406.72;;;2.70;100.00
72677;BME280;60755;51.374;10.662;2023-02-24T07:11:25;96400.38;;;2.59;100.00
72677;BME280;60755;51.374;10.662;2023-02-24T07:13:53;96394.94;;;2.74;100.00
72677;BME280;60755;51.374;10.662;2023-02-24T07:16:22;96392.59;;;2.59;100.00
72677;BME280;60755;51.374;10.662;2023-02-24T07:18:54;96381.34;;;2.72;100.00
72677;BME280;60755;51.374;10.662;2023-02-24T07:21:23;96382.16;;;2.72;100.00
72677;BME280;60755;51.374;10.662;2023-02-24T07:23:51;96373.00;;;2.70;99.93
72677;BME280;60755;51.374;10.662;2023-02-24T07:26:22;96364.19;;;2.71;99.63
72677;BME280;60755;51.374;10.662;2023-02-24T07:28:51;96369.16;;;2.79;100.00
72677;BME280;60755;51.374;10.662;2023-02-24T07:31:20;96361.59;;;2.77;100.00
72677;BME280;60755;51.374;10.662;2023-02-24T07:33:53;96360.56;;;2.78;99.23
72677;BME280;60755;51.374;10.662;2023-02-24T07:36:22;96357.78;;;2.80;100.00
72677;BME280;60755;51.374;10.662;2023-02-24T07:38:51;96355.22;;;2.73;99.14
72677;BME280;60755;51.374;10.662;2023-02-24T07:41:20;96354.47;;;2.66;100.00
72677;BME280;60755;51.374;10.662;2023-02-24T07:43:48;96348.63;;;2.71;100.00
72677;BME280;60755;51.374;10.662;2023-02-24T07:46:17;96345.44;;;2.75;100.00
72677;BME280;60755;51.374;10.662;2023-02-24T07:48:45;96343.66;;;2.69;99.92
72677;BME280;60755;51.374;10.662;2023-02-24T07:51:15;96348.97;;;2.88;99.34
72677;BME280;60755;51.374;10.662;2023-02-24T07:53:47;96341.91;;;2.63;98.15
72677;BME280;60755;51.374;10.662;2023-02-24T07:56:15;96338.28;;;2.71;99.26
72677;BME280;60755;51.374;10.662;2023-02-24T07:58:43;96347.44;;;2.73;100.00
72677;BME280;60755;51.374;10.662;2023-02-24T08:01:11;96334.31;;;2.68;100.00
72677;BME280;60755;51.374;10.662;2023-02-24T08:03:47;96326.09;;;2.71;98.35
72677;BME280;60755;51.374;10.662;2023-02-24T08:06:16;96322.88;;;2.76;100.00
72677;BME280;60755;51.374;10.662;2023-02-24T08:08:52;96319.75;;;2.99;98.25
72677;BME280;60755;51.374;10.662;2023-02-24T08:11:25;96318.44;;;2.90;96.18
72677;BME280;60755;51.374;10.662;2023-02-24T08:13:52;96307.38;;;3.01;98.05
72677;BME280;60755;51.374;10.662;2023-02-24T08:16:19;96299.34;;;3.09;96.98
72677;BME280;60755;51.374;10.662;2023-02-24T08:18:47;96298.56;;;3.02;96.55
72677;BME280;60755;51.374;10.662;2023-02-24T08:21:16;96303.25;;;3.18;96.18
72677;BME280;60755;51.374;10.662;2023-02-24T08:23:46;96297.84;;;3.45;97.05
72677;BME280;60755;51.374;10.662;2023-02-24T08:26:13;96296.38;;;3.55;94.53
72677;BME280;60755;51.374;10.662;2023-02-24T08:28:40;96294.06;;;3.47;93.72
72677;BME280;60755;51.374;10.662;2023-02-24T08:31:08;96282.41;;;3.31;95.04
72677;BME280;60755;51.374;10.662;2023-02-24T08:33:37;96287.53;;;3.38;95.42
72677;BME280;60755;51.374;10.662;2023-02-24T08:36:04;96274.16;;;3.09;93.97
72677;BME280;60755;51.374;10.662;2023-02-24T08:38:34;96266.50;;;3.21;94.38
72677;BME280;60755;51.374;10.662;2023-02-24T08:41:15;96259.91;;;3.44;93.06
72677;BME280;60755;51.374;10.662;2023-02-24T08:43:44;96262.38;;;3.39;91.32
72677;BME280;60755;51.374;10.662;2023-02-24T08:46:15;96254.16;;;3.60;91.56
72677;BME280;60755;51.374;10.662;2023-02-24T08:48:45;96236.28;;;3.88;90.98
72677;BME280;60755;51.374;10.662;2023-02-24T08:51:14;96248.00;;;3.79;91.26
72677;BME280;60755;51.374;10.662;2023-02-24T08:53:44;96238.34;;;4.35;89.48
72677;BME280;60755;51.374;10.662;2023-02-24T08:56:13;96241.88;;;4.22;89.46
72677;BME280;60755;51.374;10.662;2023-02-24T08:58:51;96238.72;;;4.20;89.13
72677;BME280;60755;51.374;10.662;2023-02-24T09:01:26;96232.00;;;4.12;89.15
72677;BME280;60755;51.374;10.662;2023-02-24T09:04:00;96232.91;;;4.36;88.67
72677;BME280;60755;51.374;10.662;2023-02-24T09:06:35;96224.09;;;4.37;87.14
72677;BME280;60755;51.374;10.662;2023-02-24T09:09:05;96217.75;;;4.33;88.80
72677;BME280;60755;51.374;10.662;2023-02-24T09:11:47;96210.84;;;4.09;88.33
72677;BME280;60755;51.374;10.662;2023-02-24T09:14:17;96201.66;;;4.55;87.51
72677;BME280;60755;51.374;10.662;2023-02-24T09:16:46;96207.31;;;4.63;86.74
72677;BME280;60755;51.374;10.662;2023-02-24T09:19:38;96196.53;;;5.01;86.97
72677;BME280;60755;51.374;10.662;2023-02-24T09:22:24;96196.53;;;4.90;85.16
72677;BME280;60755;51.374;10.662;2023-02-24T09:25:00;96194.25;;;4.82;85.67
72677;BME280;60755;51.374;10.662;2023-02-24T09:27:50;96188.00;;;4.71;84.80
72677;BME280;60755;51.374;10.662;2023-02-24T09:30:24;96180.31;;;4.76;84.10
72677;BME280;60755;51.374;10.662;2023-02-24T09:33:10;96182.41;;;4.97;84.87
72677;BME280;60755;51.374;10.662;2023-02-24T09:35:48;96174.88;;;4.66;83.90
72677;BME280;60755;51.374;10.662;2023-02-24T09:38:18;96170.66;;;4.53;85.59
72677;BME280;60755;51.374;10.662;2023-02-24T09:40:48;96166.25;;;4.24;86.85
72677;BME280;60755;51.374;10.662;2023-02-24T09:43:18;96162.03;;;4.41;85.38
72677;BME280;60755;51.374;10.662;2023-02-24T09:45:51;96158.91;;;4.51;85.77
72677;BME280;60755;51.374;10.662;2023-02-24T09:48:31;96156.47;;;4.37;85.74
72677;BME280;60755;51.374;10.662;2023-02-24T09:51:13;96160.75;;;4.73;86.15
72677;BME280;60755;51.374;10.662;2023-02-24T09:53:49;96169.16;;;4.45;84.10
72677;BME280;60755;51.374;10.662;2023-02-24T09:56:30;96154.16;;;4.59;85.53
72677;BME280;60755;51.374;10.662;2023-02-24T09:59:08;96153.50;;;4.22;84.08
72677;BME280;60755;51.374;10.662;2023-02-24T10:01:51;96149.63;;;4.55;85.67
72677;BME280;60755;51.374;10.662;2023-02-24T10:04:46;96149.84;;;4.65;85.56
72677;BME280;60755;51.374;10.662;2023-02-24T10:07:24;96147.41;;;4.28;84.61
72677;BME280;60755;51.374;10.662;2023-02-24T10:09:55;96145.75;;;4.04;85.35
72677;BME280;60755;51.374;10.662;2023-02-24T10:12:47;96144.97;;;4.15;86.26
72677;BME280;60755;51.374;10.662;2023-02-24T10:15:19;96137.00;;;4.28;84.04
72677;BME280;60755;51.374;10.662;2023-02-24T10:18:29;96125.91;;;4.21;85.16
72677;BME280;60755;51.374;10.662;2023-02-24T10:21:02;96123.38;;;4.44;84.38
72677;BME280;60755;51.374;10.662;2023-02-24T10:23:42;96131.97;;;4.57;84.30
72677;BME280;60755;51.374;10.662;2023-02-24T10:26:24;96127.38;;;4.82;85.00
72677;BME280;60755;51.374;10.662;2023-02-24T10:29:02;96124.81;;;4.40;84.10
72677;BME280;60755;51.374;10.662;2023-02-24T10:31:40;96113.09;;;4.08;85.56
72677;BME280;60755;51.374;10.662;2023-02-24T10:34:15;96119.88;;;4.09;85.22
72677;BME280;60755;51.374;10.662;2023-02-24T10:36:44;96116.34;;;4.45;85.47
72677;BME280;60755;51.374;10.662;2023-02-24T10:39:16;96115.25;;;4.53;83.84
72677;BME280;60755;51.374;10.662;2023-02-24T10:41:47;96120.22;;;4.42;84.57
72677;BME280;60755;51.374;10.662;2023-02-24T10:44:23;96112.69;;;4.22;84.04
72677;BME280;60755;51.374;10.662;2023-02-24T10:47:01;96112.03;;;4.27;86.47
72677;BME280;60755;51.374;10.662;2023-02-24T10:49:45;96104.00;;;3.87;84.83
72677;BME280;60755;51.374;10.662;2023-02-24T10:52:23;96102.81;;;3.83;86.95
72677;BME280;60755;51.374;10.662;2023-02-24T10:55:24;96097.81;;;3.51;86.93
72677;BME280;60755;51.374;10.662;2023-02-24T10:58:04;96092.13;;;3.61;86.55
72677;BME280;60755;51.374;10.662;2023-02-24T11:00:40;96097.22;;;3.86;86.04
72677;BME280;60755;51.374;10.662;2023-02-24T11:03:37;96084.63;;;3.53;87.27
72677;BME280;60755;51.374;10.662;2023-02-24T11:06:21;96066.44;;;3.71;85.62
72677;BME280;60755;51.374;10.662;2023-02-24T11:09:14;96067.53;;;3.93;86.10
72677;BME280;60755;51.374;10.662;2023-02-24T11:11:58;96060.03;;;4.39;84.37
72677;BME280;60755;51.374;10.662;2023-02-24T11:14:50;96061.19;;;4.43;84.05
72677;BME280;60755;51.374;10.662;2023-02-24T11:17:45;96053.13;;;4.21;82.20
72677;BME280;60755;51.374;10.662;2023-02-24T11:20:25;96057.31;;;3.80;83.02
72677;BME280;60755;51.374;10.662;2023-02-24T11:22:54;96044.34;;;3.92;83.99
72677;BME280;60755;51.374;10.662;2023-02-24T11:25:24;96042.97;;;3.78;84.33
72677;BME280;60755;51.374;10.662;2023-02-24T11:27:53;96038.81;;;4.00;84.03
72677;BME280;60755;51.374;10.662;2023-02-24T11:30:29;96029.50;;;3.81;82.56
72677;BME280;60755;51.374;10.662;2023-02-24T11:33:23;96027.53;;;3.64;83.68
72677;BME280;60755;51.374;10.662;2023-02-24T11:36:02;96019.97;;;3.63;83.76
72677;BME280;60755;51.374;10.662;2023-02-24T11:38:38;96018.41;;;3.62;84.31
72677;BME280;60755;51.374;10.662;2023-02-24T11:41:13;96017.91;;;3.53;84.80
72677;BME280;60755;51.374;10.662;2023-02-24T11:43:48;96012.28;;;3.68;86.25
72677;BME280;60755;51.374;10.662;2023-02-24T11:46:30;95997.63;;;3.62;87.91
72677;BME280;60755;51.374;10.662;2023-02-24T11:49:07;96010.00;;;3.60;88.63
72677;BME280;60755;51.374;10.662;2023-02-24T11:51:36;96002.06;;;3.85;88.79
72677;BME280;60755;51.374;10.662;2023-02-24T11:54:08;95989.16;;;3.06;89.39
72677;BME280;60755;51.374;10.662;2023-02-24T11:56:38;95990.34;;;3.04;91.25
72677;BME280;60755;51.374;10.662;2023-02-24T11:59:11;95984.19;;;3.05;92.56
72677;BME280;60755;51.374;10.662;2023-02-24T12:01:44;95983.09;;;2.94;91.85
72677;BME280;60755;51.374;10.662;2023-02-24T12:04:18;95981.00;;;2.66;92.00
72677;BME280;60755;51.374;10.662;2023-02-24T12:06:51;95968.97;;;2.72;90.37
72677;BME280;60755;51.374;10.662;2023-02-24T12:09:25;95965.59;;;2.71;91.88
72677;BME280;60755;51.374;10.662;2023-02-24T12:11:57;95965.00;;;2.88;93.76
72677;BME280;60755;51.374;10.662;2023-02-24T12:14:32;95964.84;;;3.01;93.01
72677;BME280;60755;51.374;10.662;2023-02-24T12:17:09;95959.41;;;2.91;93.77
72677;BME280;60755;51.374;10.662;2023-02-24T12:19:50;95952.75;;;3.13;94.20
72677;BME280;60755;51.374;10.662;2023-02-24T12:22:19;95951.84;;;3.19;93.49
72677;BME280;60755;51.374;10.662;2023-02-24T12:24:50;95941.75;;;2.81;96.11
72677;BME280;60755;51.374;10.662;2023-02-24T12:27:25;95944.69;;;2.48;95.72
72677;BME280;60755;51.374;10.662;2023-02-24T12:30:19;95938.06;;;2.70;97.50
72677;BME280;60755;51.374;10.662;2023-02-24T12:33:06;95936.22;;;2.41;97.34
72677;BME280;60755;51.374;10.662;2023-02-24T12:35:43;95941.13;;;2.49;97.31
72677;BME280;60755;51.374;10.662;2023-02-24T12:38:25;95933.75;;;2.64;96.84
72677;BME280;60755;51.374;10.662;2023-02-24T12:41:07;95923.38;;;2.64;97.28
72677;BME280;60755;51.374;10.662;2023-02-24T12:43:41;95925.66;;;2.72;97.25
72677;BME280;60755;51.374;10.662;2023-02-24T12:46:18;95923.44;;;2.76;98.21
72677;BME280;60755;51.374;10.662;2023-02-24T12:48:58;95918.84;;;2.60;96.22
72677;BME280;60755;51.374;10.662;2023-02-24T12:51:33;95914.91;;;2.87;98.17
72677;BME280;60755;51.374;10.662;2023-02-24T12:54:07;95909.31;;;2.72;97.64
72677;BME280;60755;51.374;10.662;2023-02-24T12:56:45;95909.63;;;2.45;99.15
72677;BME280;60755;51.374;10.662;2023-02-24T12:59:19;95903.94;;;2.55;99.18
72677;BME280;60755;51.374;10.662;2023-02-24T13:01:52;95897.16;;;2.54;98.24
72677;BME280;60755;51.374;10.662;2023-02-24T13:04:28;95899.53;;;2.56;98.87
72677;BME280;60755;51.374;10.662;2023-02-24T13:07:19;95889.38;;;2.54;99.35
72677;BME280;60755;51.374;10.662;2023-02-24T13:10:02;95884.50;;;2.46;97.07
72677;BME280;60755;51.374;10.662;2023-02-24T13:12:34;95882.47;;;2.66;96.71
72677;BME280;60755;51.374;10.662;2023-02-24T13:15:06;95885.47;;;2.63;97.78
72677;BME280;60755;51.374;10.662;2023-02-24T13:17:44;95882.34;;;2.43;97.93
72677;BME280;60755;51.374;10.662;2023-02-24T13:20:25;95879.09;;;2.29;97.80
72677;BME280;60755;51.374;10.662;2023-02-24T13:22:54;95870.91;;;2.50;97.87
72677;BME280;60755;51.374;10.662;2023-02-24T13:25:23;95861.53;;;2.31;97.57
72677;BME280;60755;51.374;10.662;2023-02-24T13:27:57;95866.34;;;2.46;97.66
72677;BME280;60755;51.374;10.662;2023-02-24T13:30:38;95863.31;;;2.31;99.38